Macaiba, Brazil
Current Conditions -  °F | °C
As of 11:00 AM on Saturday 25 Oct 2014 (Local Time) from SBNT Reporting Station
Broken Clouds Broken Clouds  
Wind Chill: 84°   Ceiling: 3000
Heat Index: 87°   Visibility: 6mi
Dew Point: 68°   Wind: 17mph
Humidity: 58%   Direction: 100°E
Pressure: 29.94"   Gusts: NA
Location:  5.86°S, 35.35°W
Report Text: SBNT 251400Z 10015KT 9999 BKN030 29/20 Q1014
Loading
Personal Weather Stations






























Interactive Weather Map
Tropical Storm Tracking
New forecast layout! Learn more

10-Day Weather Forecast

Advertisements
Track Severe Weather on mobile